sensor_id;sensor_type;location;lat;lon;timestamp;P1;durP1;ratioP1;P2;durP2;ratioP2
22160;SDS011;49035;48.812;11.762;2022-12-01T00:00:59;31.53;;;16.07;;
22160;SDS011;49035;48.812;11.762;2022-12-01T00:03:26;32.70;;;16.73;;
22160;SDS011;49035;48.812;11.762;2022-12-01T00:06:05;32.20;;;16.47;;
22160;SDS011;49035;48.812;11.762;2022-12-01T00:08:34;34.10;;;16.93;;
22160;SDS011;49035;48.812;11.762;2022-12-01T00:11:04;34.67;;;16.90;;
22160;SDS011;49035;48.812;11.762;2022-12-01T00:13:32;33.13;;;17.70;;
22160;SDS011;49035;48.812;11.762;2022-12-01T00:16:08;34.87;;;16.97;;
22160;SDS011;49035;48.812;11.762;2022-12-01T00:18:37;30.60;;;16.60;;
22160;SDS011;49035;48.812;11.762;2022-12-01T00:21:03;38.60;;;17.10;;
22160;SDS011;49035;48.812;11.762;2022-12-01T00:23:29;33.90;;;16.27;;
22160;SDS011;49035;48.812;11.762;2022-12-01T00:26:00;36.13;;;17.53;;
22160;SDS011;49035;48.812;11.762;2022-12-01T00:28:27;30.40;;;16.17;;
22160;SDS011;49035;48.812;11.762;2022-12-01T00:30:53;31.47;;;16.33;;
22160;SDS011;49035;48.812;11.762;2022-12-01T00:33:18;27.87;;;14.80;;
22160;SDS011;49035;48.812;11.762;2022-12-01T00:35:44;30.03;;;15.93;;
22160;SDS011;49035;48.812;11.762;2022-12-01T00:38:09;29.33;;;15.13;;
22160;SDS011;49035;48.812;11.762;2022-12-01T00:40:35;37.03;;;17.20;;
22160;SDS011;49035;48.812;11.762;2022-12-01T00:43:00;35.43;;;16.47;;
22160;SDS011;49035;48.812;11.762;2022-12-01T00:45:26;33.07;;;16.20;;
22160;SDS011;49035;48.812;11.762;2022-12-01T00:47:52;33.57;;;17.33;;
22160;SDS011;49035;48.812;11.762;2022-12-01T00:50:17;30.53;;;16.70;;
22160;SDS011;49035;48.812;11.762;2022-12-01T00:52:43;32.27;;;16.87;;
22160;SDS011;49035;48.812;11.762;2022-12-01T00:55:08;30.87;;;16.37;;
22160;SDS011;49035;48.812;11.762;2022-12-01T00:57:35;37.20;;;18.07;;
22160;SDS011;49035;48.812;11.762;2022-12-01T01:00:00;37.23;;;17.03;;
22160;SDS011;49035;48.812;11.762;2022-12-01T01:02:26;33.30;;;16.43;;
22160;SDS011;49035;48.812;11.762;2022-12-01T01:04:51;35.50;;;17.60;;
22160;SDS011;49035;48.812;11.762;2022-12-01T01:07:17;32.77;;;16.07;;
22160;SDS011;49035;48.812;11.762;2022-12-01T01:09:45;38.13;;;18.63;;
22160;SDS011;49035;48.812;11.762;2022-12-01T01:12:11;30.13;;;16.83;;
22160;SDS011;49035;48.812;11.762;2022-12-01T01:14:36;34.93;;;17.73;;
22160;SDS011;49035;48.812;11.762;2022-12-01T01:17:02;31.80;;;15.57;;
22160;SDS011;49035;48.812;11.762;2022-12-01T01:19:27;31.13;;;16.33;;
22160;SDS011;49035;48.812;11.762;2022-12-01T01:21:53;32.13;;;16.57;;
22160;SDS011;49035;48.812;11.762;2022-12-01T01:24:19;29.13;;;15.90;;
22160;SDS011;49035;48.812;11.762;2022-12-01T01:26:44;32.67;;;17.33;;
22160;SDS011;49035;48.812;11.762;2022-12-01T01:29:10;31.83;;;16.13;;
22160;SDS011;49035;48.812;11.762;2022-12-01T01:31:36;33.40;;;16.77;;
22160;SDS011;49035;48.812;11.762;2022-12-01T01:34:01;34.83;;;16.87;;
22160;SDS011;49035;48.812;11.762;2022-12-01T01:36:27;31.97;;;15.57;;
22160;SDS011;49035;48.812;11.762;2022-12-01T01:38:53;30.37;;;15.47;;
22160;SDS011;49035;48.812;11.762;2022-12-01T01:41:19;31.30;;;16.13;;
22160;SDS011;49035;48.812;11.762;2022-12-01T01:46:21;32.57;;;16.70;;
22160;SDS011;49035;48.812;11.762;2022-12-01T01:54:08;31.83;;;16.27;;
22160;SDS011;49035;48.812;11.762;2022-12-01T01:56:39;35.67;;;15.83;;
22160;SDS011;49035;48.812;11.762;2022-12-01T01:59:07;32.43;;;16.77;;
22160;SDS011;49035;48.812;11.762;2022-12-01T02:01:34;32.07;;;15.80;;
22160;SDS011;49035;48.812;11.762;2022-12-01T02:04:00;31.97;;;16.03;;
22160;SDS011;49035;48.812;11.762;2022-12-01T02:06:27;33.20;;;15.67;;
22160;SDS011;49035;48.812;11.762;2022-12-01T02:08:53;31.93;;;15.70;;
22160;SDS011;49035;48.812;11.762;2022-12-01T02:14:24;32.30;;;16.30;;
22160;SDS011;49035;48.812;11.762;2022-12-01T02:17:43;30.10;;;15.63;;
22160;SDS011;49035;48.812;11.762;2022-12-01T02:30:57;30.23;;;15.30;;
22160;SDS011;49035;48.812;11.762;2022-12-01T02:36:41;33.83;;;15.70;;
22160;SDS011;49035;48.812;11.762;2022-12-01T02:42:22;36.10;;;16.50;;
22160;SDS011;49035;48.812;11.762;2022-12-01T02:45:02;31.33;;;15.07;;
22160;SDS011;49035;48.812;11.762;2022-12-01T02:47:31;31.00;;;16.33;;
22160;SDS011;49035;48.812;11.762;2022-12-01T02:49:57;32.53;;;16.30;;
22160;SDS011;49035;48.812;11.762;2022-12-01T02:52:25;29.97;;;15.90;;
22160;SDS011;49035;48.812;11.762;2022-12-01T02:54:52;30.27;;;16.73;;
22160;SDS011;49035;48.812;11.762;2022-12-01T02:57:22;37.20;;;16.50;;
22160;SDS011;49035;48.812;11.762;2022-12-01T02:59:49;28.90;;;15.20;;
22160;SDS011;49035;48.812;11.762;2022-12-01T03:02:27;35.17;;;16.77;;
22160;SDS011;49035;48.812;11.762;2022-12-01T03:08:27;34.70;;;16.47;;
22160;SDS011;49035;48.812;11.762;2022-12-01T03:10:59;30.83;;;16.13;;
22160;SDS011;49035;48.812;11.762;2022-12-01T03:13:47;35.07;;;16.87;;
22160;SDS011;49035;48.812;11.762;2022-12-01T03:16:35;32.93;;;15.57;;
22160;SDS011;49035;48.812;11.762;2022-12-01T03:19:12;30.33;;;14.83;;
22160;SDS011;49035;48.812;11.762;2022-12-01T03:22:16;36.10;;;16.47;;
22160;SDS011;49035;48.812;11.762;2022-12-01T03:24:43;32.63;;;15.27;;
22160;SDS011;49035;48.812;11.762;2022-12-01T03:27:11;31.17;;;16.17;;
22160;SDS011;49035;48.812;11.762;2022-12-01T03:29:44;30.00;;;15.90;;
22160;SDS011;49035;48.812;11.762;2022-12-01T03:32:17;38.60;;;15.57;;
22160;SDS011;49035;48.812;11.762;2022-12-01T03:34:55;29.90;;;15.77;;
22160;SDS011;49035;48.812;11.762;2022-12-01T03:37:33;31.27;;;16.23;;
22160;SDS011;49035;48.812;11.762;2022-12-01T03:40:04;33.10;;;16.70;;
22160;SDS011;49035;48.812;11.762;2022-12-01T03:42:34;36.33;;;17.53;;
22160;SDS011;49035;48.812;11.762;2022-12-01T03:45:03;32.10;;;16.73;;
22160;SDS011;49035;48.812;11.762;2022-12-01T03:47:32;32.07;;;15.93;;
22160;SDS011;49035;48.812;11.762;2022-12-01T03:50:01;35.27;;;16.67;;
22160;SDS011;49035;48.812;11.762;2022-12-01T03:52:54;37.20;;;18.00;;
22160;SDS011;49035;48.812;11.762;2022-12-01T03:55:28;36.83;;;17.13;;
22160;SDS011;49035;48.812;11.762;2022-12-01T04:00:34;38.03;;;16.83;;
22160;SDS011;49035;48.812;11.762;2022-12-01T04:03:01;42.33;;;17.93;;
22160;SDS011;49035;48.812;11.762;2022-12-01T04:05:28;38.23;;;17.57;;
22160;SDS011;49035;48.812;11.762;2022-12-01T04:07:55;41.00;;;19.00;;
22160;SDS011;49035;48.812;11.762;2022-12-01T04:10:20;41.80;;;18.83;;
22160;SDS011;49035;48.812;11.762;2022-12-01T04:12:46;38.37;;;18.37;;
22160;SDS011;49035;48.812;11.762;2022-12-01T04:15:12;35.70;;;17.07;;
22160;SDS011;49035;48.812;11.762;2022-12-01T04:17:39;37.50;;;18.70;;
22160;SDS011;49035;48.812;11.762;2022-12-01T04:20:08;43.63;;;20.30;;
22160;SDS011;49035;48.812;11.762;2022-12-01T04:22:35;41.53;;;18.33;;
22160;SDS011;49035;48.812;11.762;2022-12-01T04:25:01;43.20;;;18.33;;
22160;SDS011;49035;48.812;11.762;2022-12-01T04:27:28;38.10;;;17.67;;
22160;SDS011;49035;48.812;11.762;2022-12-01T04:29:54;40.27;;;19.23;;
22160;SDS011;49035;48.812;11.762;2022-12-01T04:32:19;35.87;;;16.90;;
22160;SDS011;49035;48.812;11.762;2022-12-01T04:34:45;37.00;;;18.17;;
22160;SDS011;49035;48.812;11.762;2022-12-01T04:37:10;32.47;;;16.77;;
22160;SDS011;49035;48.812;11.762;2022-12-01T04:39:36;43.23;;;18.70;;
22160;SDS011;49035;48.812;11.762;2022-12-01T04:42:03;40.43;;;17.73;;
22160;SDS011;49035;48.812;11.762;2022-12-01T04:44:29;36.40;;;17.50;;
22160;SDS011;49035;48.812;11.762;2022-12-01T04:46:55;32.27;;;15.57;;
22160;SDS011;49035;48.812;11.762;2022-12-01T04:49:20;33.00;;;16.53;;
22160;SDS011;49035;48.812;11.762;2022-12-01T04:51:47;43.97;;;17.30;;
22160;SDS011;49035;48.812;11.762;2022-12-01T04:54:12;35.40;;;16.87;;
22160;SDS011;49035;48.812;11.762;2022-12-01T04:56:39;32.53;;;16.27;;
22160;SDS011;49035;48.812;11.762;2022-12-01T04:59:04;34.60;;;16.70;;
22160;SDS011;49035;48.812;11.762;2022-12-01T05:01:30;36.53;;;17.27;;
22160;SDS011;49035;48.812;11.762;2022-12-01T05:03:56;32.37;;;16.63;;
22160;SDS011;49035;48.812;11.762;2022-12-01T05:06:22;39.13;;;16.43;;
22160;SDS011;49035;48.812;11.762;2022-12-01T05:08:50;38.37;;;18.33;;
22160;SDS011;49035;48.812;11.762;2022-12-01T05:11:18;42.13;;;19.50;;
22160;SDS011;49035;48.812;11.762;2022-12-01T05:13:44;39.30;;;18.80;;
22160;SDS011;49035;48.812;11.762;2022-12-01T05:18:41;39.70;;;18.23;;
22160;SDS011;49035;48.812;11.762;2022-12-01T05:21:08;38.60;;;18.47;;
22160;SDS011;49035;48.812;11.762;2022-12-01T05:23:35;42.73;;;18.90;;
22160;SDS011;49035;48.812;11.762;2022-12-01T05:26:02;37.20;;;17.63;;
22160;SDS011;49035;48.812;11.762;2022-12-01T05:28:29;38.23;;;16.60;;
22160;SDS011;49035;48.812;11.762;2022-12-01T05:30:55;41.47;;;17.43;;
22160;SDS011;49035;48.812;11.762;2022-12-01T05:33:22;37.90;;;16.50;;
22160;SDS011;49035;48.812;11.762;2022-12-01T05:35:49;35.77;;;15.77;;
22160;SDS011;49035;48.812;11.762;2022-12-01T05:38:15;37.00;;;16.83;;
22160;SDS011;49035;48.812;11.762;2022-12-01T05:40:41;34.50;;;16.80;;
22160;SDS011;49035;48.812;11.762;2022-12-01T05:43:07;30.83;;;16.03;;
22160;SDS011;49035;48.812;11.762;2022-12-01T05:45:33;31.87;;;15.53;;
22160;SDS011;49035;48.812;11.762;2022-12-01T05:47:59;32.63;;;16.00;;
22160;SDS011;49035;48.812;11.762;2022-12-01T05:50:26;37.33;;;15.90;;
22160;SDS011;49035;48.812;11.762;2022-12-01T05:52:53;35.23;;;16.70;;
22160;SDS011;49035;48.812;11.762;2022-12-01T05:55:19;42.67;;;18.07;;
22160;SDS011;49035;48.812;11.762;2022-12-01T05:57:47;37.90;;;17.37;;
22160;SDS011;49035;48.812;11.762;2022-12-01T06:00:13;43.13;;;18.77;;
22160;SDS011;49035;48.812;11.762;2022-12-01T06:02:40;33.77;;;17.07;;
22160;SDS011;49035;48.812;11.762;2022-12-01T06:05:06;35.90;;;17.23;;
22160;SDS011;49035;48.812;11.762;2022-12-01T06:07:33;40.77;;;18.40;;
22160;SDS011;49035;48.812;11.762;2022-12-01T06:09:59;39.67;;;17.50;;
22160;SDS011;49035;48.812;11.762;2022-12-01T06:12:26;37.13;;;17.33;;
22160;SDS011;49035;48.812;11.762;2022-12-01T06:14:52;38.13;;;17.17;;
22160;SDS011;49035;48.812;11.762;2022-12-01T06:17:17;37.57;;;17.20;;
22160;SDS011;49035;48.812;11.762;2022-12-01T06:19:43;36.33;;;17.27;;
22160;SDS011;49035;48.812;11.762;2022-12-01T06:22:09;40.47;;;18.67;;
22160;SDS011;49035;48.812;11.762;2022-12-01T06:24:34;48.33;;;19.63;;
22160;SDS011;49035;48.812;11.762;2022-12-01T06:27:00;44.87;;;18.70;;
22160;SDS011;49035;48.812;11.762;2022-12-01T06:29:26;40.00;;;18.33;;
22160;SDS011;49035;48.812;11.762;2022-12-01T06:31:52;38.57;;;18.40;;
22160;SDS011;49035;48.812;11.762;2022-12-01T06:34:17;42.67;;;18.60;;
22160;SDS011;49035;48.812;11.762;2022-12-01T06:36:46;41.63;;;20.13;;
22160;SDS011;49035;48.812;11.762;2022-12-01T06:39:13;46.97;;;18.87;;
22160;SDS011;49035;48.812;11.762;2022-12-01T06:41:39;30.93;;;16.30;;
22160;SDS011;49035;48.812;11.762;2022-12-01T06:44:05;37.10;;;17.37;;
22160;SDS011;49035;48.812;11.762;2022-12-01T06:46:31;33.53;;;16.03;;
22160;SDS011;49035;48.812;11.762;2022-12-01T06:48:56;37.47;;;17.73;;
22160;SDS011;49035;48.812;11.762;2022-12-01T06:51:22;36.83;;;17.17;;
22160;SDS011;49035;48.812;11.762;2022-12-01T06:53:52;36.87;;;17.33;;
22160;SDS011;49035;48.812;11.762;2022-12-01T06:56:21;40.67;;;19.37;;
22160;SDS011;49035;48.812;11.762;2022-12-01T06:58:50;46.87;;;19.47;;
22160;SDS011;49035;48.812;11.762;2022-12-01T07:01:17;39.53;;;17.40;;
22160;SDS011;49035;48.812;11.762;2022-12-01T07:03:46;37.93;;;18.10;;
22160;SDS011;49035;48.812;11.762;2022-12-01T07:06:12;41.37;;;18.90;;
22160;SDS011;49035;48.812;11.762;2022-12-01T07:08:38;44.63;;;18.90;;
22160;SDS011;49035;48.812;11.762;2022-12-01T07:11:08;46.27;;;20.30;;
22160;SDS011;49035;48.812;11.762;2022-12-01T07:13:39;48.53;;;20.57;;
22160;SDS011;49035;48.812;11.762;2022-12-01T07:16:06;42.53;;;19.50;;
22160;SDS011;49035;48.812;11.762;2022-12-01T07:18:33;43.63;;;19.67;;
22160;SDS011;49035;48.812;11.762;2022-12-01T07:21:01;44.67;;;20.93;;
22160;SDS011;49035;48.812;11.762;2022-12-01T07:23:29;44.50;;;19.50;;
22160;SDS011;49035;48.812;11.762;2022-12-01T07:26:02;50.77;;;20.00;;
22160;SDS011;49035;48.812;11.762;2022-12-01T07:28:46;43.73;;;19.10;;
22160;SDS011;49035;48.812;11.762;2022-12-01T07:33:39;49.73;;;21.60;;
22160;SDS011;49035;48.812;11.762;2022-12-01T07:36:05;47.57;;;21.03;;
22160;SDS011;49035;48.812;11.762;2022-12-01T07:38:32;53.17;;;23.30;;
22160;SDS011;49035;48.812;11.762;2022-12-01T07:41:06;47.23;;;22.23;;
22160;SDS011;49035;48.812;11.762;2022-12-01T07:43:36;52.07;;;21.03;;
22160;SDS011;49035;48.812;11.762;2022-12-01T07:46:09;51.30;;;21.87;;
22160;SDS011;49035;48.812;11.762;2022-12-01T07:48:40;47.33;;;21.57;;
22160;SDS011;49035;48.812;11.762;2022-12-01T07:51:06;44.77;;;21.70;;
22160;SDS011;49035;48.812;11.762;2022-12-01T07:53:34;43.00;;;20.80;;
22160;SDS011;49035;48.812;11.762;2022-12-01T07:56:00;41.50;;;20.53;;
22160;SDS011;49035;48.812;11.762;2022-12-01T07:58:26;41.77;;;20.57;;
22160;SDS011;49035;48.812;11.762;2022-12-01T08:00:52;40.13;;;19.97;;
22160;SDS011;49035;48.812;11.762;2022-12-01T08:03:18;38.60;;;19.67;;
22160;SDS011;49035;48.812;11.762;2022-12-01T08:05:44;37.83;;;19.37;;
22160;SDS011;49035;48.812;11.762;2022-12-01T08:08:19;32.87;;;17.57;;
22160;SDS011;49035;48.812;11.762;2022-12-01T08:10:44;33.43;;;17.57;;
22160;SDS011;49035;48.812;11.762;2022-12-01T08:13:10;33.13;;;17.10;;
22160;SDS011;49035;48.812;11.762;2022-12-01T08:15:35;32.20;;;17.57;;
22160;SDS011;49035;48.812;11.762;2022-12-01T08:18:01;32.57;;;17.30;;
22160;SDS011;49035;48.812;11.762;2022-12-01T08:20:27;29.03;;;15.73;;
22160;SDS011;49035;48.812;11.762;2022-12-01T08:22:52;29.60;;;15.83;;
22160;SDS011;49035;48.812;11.762;2022-12-01T08:25:18;31.07;;;15.77;;
22160;SDS011;49035;48.812;11.762;2022-12-01T08:27:44;29.13;;;16.43;;
22160;SDS011;49035;48.812;11.762;2022-12-01T08:30:09;30.47;;;16.10;;
22160;SDS011;49035;48.812;11.762;2022-12-01T08:32:35;24.40;;;14.00;;
22160;SDS011;49035;48.812;11.762;2022-12-01T08:35:01;27.23;;;15.47;;
22160;SDS011;49035;48.812;11.762;2022-12-01T08:37:26;26.53;;;15.53;;
22160;SDS011;49035;48.812;11.762;2022-12-01T08:39:52;26.27;;;15.93;;
22160;SDS011;49035;48.812;11.762;2022-12-01T08:42:17;26.90;;;15.00;;
22160;SDS011;49035;48.812;11.762;2022-12-01T08:44:43;25.37;;;15.20;;
22160;SDS011;49035;48.812;11.762;2022-12-01T08:47:08;24.97;;;14.77;;
22160;SDS011;49035;48.812;11.762;2022-12-01T08:49:34;29.97;;;16.83;;
22160;SDS011;49035;48.812;11.762;2022-12-01T08:52:00;26.77;;;14.83;;
22160;SDS011;49035;48.812;11.762;2022-12-01T08:54:25;25.60;;;14.60;;
22160;SDS011;49035;48.812;11.762;2022-12-01T08:56:51;30.37;;;17.03;;
22160;SDS011;49035;48.812;11.762;2022-12-01T08:59:16;27.93;;;15.67;;
22160;SDS011;49035;48.812;11.762;2022-12-01T09:01:42;25.60;;;15.05;;
22160;SDS011;49035;48.812;11.762;2022-12-01T09:04:21;27.47;;;15.47;;
22160;SDS011;49035;48.812;11.762;2022-12-01T09:06:49;23.42;;;14.02;;
22160;SDS011;49035;48.812;11.762;2022-12-01T09:09:17;23.77;;;14.27;;
22160;SDS011;49035;48.812;11.762;2022-12-01T09:11:44;36.93;;;18.50;;
22160;SDS011;49035;48.812;11.762;2022-12-01T09:14:12;29.27;;;17.27;;
22160;SDS011;49035;48.812;11.762;2022-12-01T09:16:39;27.37;;;14.87;;
22160;SDS011;49035;48.812;11.762;2022-12-01T09:19:05;25.10;;;14.07;;
22160;SDS011;49035;48.812;11.762;2022-12-01T09:21:32;26.63;;;14.67;;
22160;SDS011;49035;48.812;11.762;2022-12-01T09:23:59;27.30;;;15.20;;
22160;SDS011;49035;48.812;11.762;2022-12-01T09:26:26;25.30;;;14.77;;
22160;SDS011;49035;48.812;11.762;2022-12-01T09:28:53;29.93;;;15.03;;
22160;SDS011;49035;48.812;11.762;2022-12-01T09:31:21;27.33;;;15.63;;
22160;SDS011;49035;48.812;11.762;2022-12-01T09:33:52;29.47;;;15.13;;
22160;SDS011;49035;48.812;11.762;2022-12-01T09:36:22;26.43;;;14.60;;
22160;SDS011;49035;48.812;11.762;2022-12-01T09:38:48;29.10;;;15.33;;
22160;SDS011;49035;48.812;11.762;2022-12-01T09:41:31;29.50;;;15.10;;
22160;SDS011;49035;48.812;11.762;2022-12-01T09:46:24;27.53;;;15.37;;
22160;SDS011;49035;48.812;11.762;2022-12-01T09:48:53;27.37;;;14.90;;
22160;SDS011;49035;48.812;11.762;2022-12-01T09:51:21;23.90;;;14.00;;
22160;SDS011;49035;48.812;11.762;2022-12-01T09:53:50;28.27;;;14.90;;
22160;SDS011;49035;48.812;11.762;2022-12-01T09:56:28;26.83;;;14.60;;
22160;SDS011;49035;48.812;11.762;2022-12-01T09:59:00;27.10;;;15.33;;
22160;SDS011;49035;48.812;11.762;2022-12-01T10:04:24;26.33;;;14.17;;
22160;SDS011;49035;48.812;11.762;2022-12-01T10:07:19;26.23;;;15.27;;
22160;SDS011;49035;48.812;11.762;2022-12-01T10:10:00;26.53;;;15.43;;
22160;SDS011;49035;48.812;11.762;2022-12-01T10:12:32;27.90;;;15.20;;
22160;SDS011;49035;48.812;11.762;2022-12-01T10:15:46;24.43;;;14.37;;
22160;SDS011;49035;48.812;11.762;2022-12-01T10:17:59;29.17;;;14.63;;
22160;SDS011;49035;48.812;11.762;2022-12-01T10:20:47;28.40;;;16.53;;
22160;SDS011;49035;48.812;11.762;2022-12-01T10:25:56;32.20;;;16.97;;
22160;SDS011;49035;48.812;11.762;2022-12-01T10:31:14;30.43;;;16.00;;
22160;SDS011;49035;48.812;11.762;2022-12-01T10:33:54;35.73;;;19.73;;
22160;SDS011;49035;48.812;11.762;2022-12-01T10:36:26;47.07;;;27.00;;
22160;SDS011;49035;48.812;11.762;2022-12-01T10:38:53;53.63;;;29.20;;
22160;SDS011;49035;48.812;11.762;2022-12-01T10:41:19;28.13;;;16.57;;
22160;SDS011;49035;48.812;11.762;2022-12-01T10:43:51;25.60;;;15.77;;
22160;SDS011;49035;48.812;11.762;2022-12-01T10:46:24;30.33;;;14.70;;
22160;SDS011;49035;48.812;11.762;2022-12-01T10:49:12;26.40;;;14.67;;
22160;SDS011;49035;48.812;11.762;2022-12-01T10:51:56;26.40;;;14.47;;
22160;SDS011;49035;48.812;11.762;2022-12-01T10:54:23;29.58;;;15.93;;
22160;SDS011;49035;48.812;11.762;2022-12-01T10:57:00;25.92;;;14.77;;
22160;SDS011;49035;48.812;11.762;2022-12-01T10:59:29;30.40;;;15.73;;
22160;SDS011;49035;48.812;11.762;2022-12-01T11:01:58;26.50;;;14.47;;
22160;SDS011;49035;48.812;11.762;2022-12-01T11:06:58;26.60;;;15.53;;
22160;SDS011;49035;48.812;11.762;2022-12-01T11:09:25;27.97;;;15.77;;
22160;SDS011;49035;48.812;11.762;2022-12-01T11:11:59;29.97;;;16.27;;
22160;SDS011;49035;48.812;11.762;2022-12-01T11:14:31;30.08;;;16.13;;
22160;SDS011;49035;48.812;11.762;2022-12-01T11:17:41;59.67;;;32.13;;
22160;SDS011;49035;48.812;11.762;2022-12-01T11:28:41;31.10;;;16.97;;
22160;SDS011;49035;48.812;11.762;2022-12-01T11:31:15;29.70;;;15.70;;
22160;SDS011;49035;48.812;11.762;2022-12-01T11:33:51;29.63;;;15.98;;
22160;SDS011;49035;48.812;11.762;2022-12-01T11:36:22;31.50;;;16.40;;
22160;SDS011;49035;48.812;11.762;2022-12-01T11:38:55;26.57;;;14.90;;
22160;SDS011;49035;48.812;11.762;2022-12-01T11:41:28;29.98;;;16.35;;
22160;SDS011;49035;48.812;11.762;2022-12-01T11:43:58;29.90;;;16.63;;
22160;SDS011;49035;48.812;11.762;2022-12-01T11:46:33;30.77;;;16.33;;
22160;SDS011;49035;48.812;11.762;2022-12-01T11:49:02;29.23;;;15.98;;
22160;SDS011;49035;48.812;11.762;2022-12-01T11:51:32;28.85;;;17.10;;
22160;SDS011;49035;48.812;11.762;2022-12-01T11:56:40;30.38;;;17.52;;
22160;SDS011;49035;48.812;11.762;2022-12-01T11:59:23;28.38;;;15.93;;
22160;SDS011;49035;48.812;11.762;2022-12-01T12:26:24;27.27;;;14.80;;
22160;SDS011;49035;48.812;11.762;2022-12-01T12:37:52;27.87;;;15.37;;
22160;SDS011;49035;48.812;11.762;2022-12-01T12:51:57;32.07;;;15.37;;
22160;SDS011;49035;48.812;11.762;2022-12-01T12:54:44;29.13;;;16.20;;
22160;SDS011;49035;48.812;11.762;2022-12-01T12:57:26;32.93;;;16.83;;
22160;SDS011;49035;48.812;11.762;2022-12-01T13:05:33;28.87;;;16.67;;
22160;SDS011;49035;48.812;11.762;2022-12-01T13:08:05;31.40;;;16.13;;
22160;SDS011;49035;48.812;11.762;2022-12-01T13:10:45;28.80;;;16.33;;
22160;SDS011;49035;48.812;11.762;2022-12-01T13:15:52;32.47;;;16.73;;
22160;SDS011;49035;48.812;11.762;2022-12-01T13:18:28;33.97;;;17.27;;
22160;SDS011;49035;48.812;11.762;2022-12-01T13:21:11;33.30;;;15.90;;
22160;SDS011;49035;48.812;11.762;2022-12-01T13:23:43;29.60;;;15.40;;
22160;SDS011;49035;48.812;11.762;2022-12-01T13:26:09;29.43;;;16.33;;
22160;SDS011;49035;48.812;11.762;2022-12-01T13:28:40;27.00;;;15.63;;
22160;SDS011;49035;48.812;11.762;2022-12-01T13:31:17;26.40;;;15.83;;
22160;SDS011;49035;48.812;11.762;2022-12-01T13:33:55;30.43;;;17.03;;
22160;SDS011;49035;48.812;11.762;2022-12-01T13:36:23;33.10;;;17.37;;
22160;SDS011;49035;48.812;11.762;2022-12-01T13:39:32;29.17;;;16.30;;
22160;SDS011;49035;48.812;11.762;2022-12-01T13:41:42;27.33;;;15.63;;
22160;SDS011;49035;48.812;11.762;2022-12-01T13:57:42;31.23;;;16.53;;
22160;SDS011;49035;48.812;11.762;2022-12-01T14:00:24;38.30;;;20.00;;
22160;SDS011;49035;48.812;11.762;2022-12-01T14:08:30;31.43;;;16.10;;
22160;SDS011;49035;48.812;11.762;2022-12-01T14:11:02;29.10;;;15.80;;
22160;SDS011;49035;48.812;11.762;2022-12-01T14:13:29;34.87;;;17.20;;
22160;SDS011;49035;48.812;11.762;2022-12-01T14:15:57;38.47;;;18.10;;
22160;SDS011;49035;48.812;11.762;2022-12-01T14:18:32;37.40;;;18.57;;
22160;SDS011;49035;48.812;11.762;2022-12-01T14:21:04;31.10;;;16.87;;
22160;SDS011;49035;48.812;11.762;2022-12-01T14:23:36;27.40;;;16.37;;
22160;SDS011;49035;48.812;11.762;2022-12-01T14:31:19;29.77;;;16.90;;
22160;SDS011;49035;48.812;11.762;2022-12-01T14:34:01;34.57;;;18.07;;
22160;SDS011;49035;48.812;11.762;2022-12-01T14:36:36;35.23;;;17.47;;
22160;SDS011;49035;48.812;11.762;2022-12-01T14:39:10;33.03;;;17.80;;
22160;SDS011;49035;48.812;11.762;2022-12-01T14:41:44;33.90;;;18.63;;
22160;SDS011;49035;48.812;11.762;2022-12-01T14:49:52;35.20;;;18.93;;
22160;SDS011;49035;48.812;11.762;2022-12-01T14:54:50;35.37;;;19.53;;
22160;SDS011;49035;48.812;11.762;2022-12-01T14:57:19;35.53;;;18.80;;
22160;SDS011;49035;48.812;11.762;2022-12-01T15:00:05;34.20;;;19.17;;
22160;SDS011;49035;48.812;11.762;2022-12-01T15:02:39;41.73;;;20.40;;
22160;SDS011;49035;48.812;11.762;2022-12-01T15:07:38;45.97;;;22.77;;
22160;SDS011;49035;48.812;11.762;2022-12-01T15:10:14;57.50;;;29.77;;
22160;SDS011;49035;48.812;11.762;2022-12-01T15:12:45;39.63;;;21.60;;
22160;SDS011;49035;48.812;11.762;2022-12-01T15:15:23;40.63;;;20.27;;
22160;SDS011;49035;48.812;11.762;2022-12-01T15:17:50;33.93;;;19.13;;
22160;SDS011;49035;48.812;11.762;2022-12-01T15:20:35;38.77;;;20.43;;
22160;SDS011;49035;48.812;11.762;2022-12-01T15:23:12;32.47;;;17.20;;
22160;SDS011;49035;48.812;11.762;2022-12-01T15:25:43;38.10;;;19.63;;
22160;SDS011;49035;48.812;11.762;2022-12-01T15:30:44;39.33;;;19.53;;
22160;SDS011;49035;48.812;11.762;2022-12-01T15:33:19;31.40;;;17.50;;
22160;SDS011;49035;48.812;11.762;2022-12-01T15:35:48;36.40;;;19.67;;
22160;SDS011;49035;48.812;11.762;2022-12-01T15:38:16;37.33;;;19.33;;
22160;SDS011;49035;48.812;11.762;2022-12-01T15:40:45;37.00;;;18.50;;
22160;SDS011;49035;48.812;11.762;2022-12-01T15:43:17;36.03;;;18.93;;
22160;SDS011;49035;48.812;11.762;2022-12-01T15:45:49;32.87;;;18.23;;
22160;SDS011;49035;48.812;11.762;2022-12-01T15:48:15;36.50;;;19.67;;
22160;SDS011;49035;48.812;11.762;2022-12-01T15:50:57;35.33;;;18.90;;
22160;SDS011;49035;48.812;11.762;2022-12-01T15:53:29;37.37;;;19.30;;
22160;SDS011;49035;48.812;11.762;2022-12-01T15:55:57;37.00;;;19.07;;
22160;SDS011;49035;48.812;11.762;2022-12-01T15:58:26;33.37;;;18.93;;
22160;SDS011;49035;48.812;11.762;2022-12-01T16:00:58;37.00;;;19.60;;
22160;SDS011;49035;48.812;11.762;2022-12-01T16:03:29;34.50;;;18.57;;
22160;SDS011;49035;48.812;11.762;2022-12-01T16:05:57;34.67;;;18.43;;
22160;SDS011;49035;48.812;11.762;2022-12-01T16:08:23;30.20;;;17.53;;
22160;SDS011;49035;48.812;11.762;2022-12-01T16:11:09;37.83;;;18.03;;
22160;SDS011;49035;48.812;11.762;2022-12-01T16:13:46;33.80;;;17.83;;
22160;SDS011;49035;48.812;11.762;2022-12-01T16:21:55;38.33;;;19.07;;
22160;SDS011;49035;48.812;11.762;2022-12-01T16:24:32;37.97;;;18.67;;
22160;SDS011;49035;48.812;11.762;2022-12-01T16:27:01;37.00;;;19.57;;
22160;SDS011;49035;48.812;11.762;2022-12-01T16:29:30;35.17;;;18.80;;
22160;SDS011;49035;48.812;11.762;2022-12-01T16:32:15;39.00;;;19.70;;
22160;SDS011;49035;48.812;11.762;2022-12-01T16:34:47;38.80;;;19.50;;
22160;SDS011;49035;48.812;11.762;2022-12-01T16:37:17;38.53;;;19.70;;
22160;SDS011;49035;48.812;11.762;2022-12-01T16:39:43;39.00;;;20.27;;
22160;SDS011;49035;48.812;11.762;2022-12-01T16:42:10;39.73;;;20.23;;
22160;SDS011;49035;48.812;11.762;2022-12-01T16:44:41;39.40;;;19.97;;
22160;SDS011;49035;48.812;11.762;2022-12-01T16:47:19;36.53;;;18.97;;
22160;SDS011;49035;48.812;11.762;2022-12-01T16:49:48;35.40;;;18.23;;
22160;SDS011;49035;48.812;11.762;2022-12-01T16:52:15;39.33;;;20.10;;
22160;SDS011;49035;48.812;11.762;2022-12-01T16:54:42;36.73;;;18.80;;
22160;SDS011;49035;48.812;11.762;2022-12-01T16:57:08;37.00;;;20.00;;
22160;SDS011;49035;48.812;11.762;2022-12-01T16:59:33;37.53;;;19.30;;
22160;SDS011;49035;48.812;11.762;2022-12-01T17:01:59;36.13;;;18.10;;
22160;SDS011;49035;48.812;11.762;2022-12-01T17:04:25;32.83;;;18.77;;